Meteo Giornale » Osservazioni meteo Italia » Pratica Di Mare

ore: 04:55 - Osservazioni Meteo Pratica Di Mare
Lat. 41° 39' N Lon. 12° 27' E Alt. 6 metri s.l.m.

poco_nuvoloso Europe/Rome

26 °C

Poco Nuvoloso

Temp. 24 Ore

25 °C

32 °C

Est

11.1 Km/h

Dew point 23 °C

Umidità 83 %

Visibilità  10 Km

Il sole sorge alle ore 06:20

Il sole tramonta alle ore 20:07

Data e Ora Cielo e Fenomeni T °C DP °C Um. % Pres. hPa Vis. km Vento km/h
Oggi h: 04:55 poco_nuvoloso Poco Nuvoloso 26 23 83 1011 10 E 11.1
Oggi h: 03:55 poco_nuvoloso Poco Nuvoloso 27 20 65 1010 10 E/SE 14.8
Oggi h: 02:55 sereno Sereno 27 21 69 1011 10 E 9.3
Oggi h: 01:55 sereno Sereno 27 23 78 1011 10 E 11.1
Oggi h: 00:55 sereno Sereno 27 24 83 1011 10 NE 11.1
Ieri h: 23:55 sereno Sereno 27 24 83 1011 10 E/SE 11.1
Ieri h: 22:55 sereno Sereno 27 24 83 1011 10 E/SE 11.1
Ieri h: 21:55 sereno Sereno 27 23 78 1011 10 SE 11.1
Ieri h: 20:55 sereno Sereno 28 24 78 1010 10 SE 9.3
Ieri h: 19:55 sereno Sereno 29 24 74 1010 10 S/SE 18.5
Ieri h: 18:55 sereno Sereno 30 25 74 1010 10 SE 20.3
Ieri h: 17:55 sereno Sereno 30 27 84 1011 10 S 25.9
Ieri h: 16:55 sereno Sereno 30 27 84 1012 10 S/SE 27.8
Ieri h: 15:55 sereno Sereno 31 28 84 1012 10 S 31.5
Ieri h: 14:55 sereno Sereno 32 28 79 1012 10 S 33.3
Ieri h: 13:55 sereno Sereno 32 28 79 1013 10 S 25.9
Ieri h: 12:55 sereno Sereno 31 27 79 1013 10 S 31.5
Ieri h: 11:55 sereno Sereno 31 27 79 1012 10 S 29.6
Ieri h: 10:55 sereno Sereno 32 25 66 1012 10 E/SE 16.7
Ieri h: 09:55 sereno Sereno 29 25 79 1012 10 E/SE 16.7
Ieri h: 08:55 sereno Sereno 27 26 94 1012 10 E/SE 16.7
Ieri h: 07:55 sereno Sereno 25 25 100 1012 10 E 13
Ieri h: 06:55 sereno Sereno 25 23 88 1012 10 E/SE 11.1